createdAt,value
2018-05-10T00:00:16.352Z,28.1
2018-05-10T00:01:06.985Z,28.2
2018-05-10T00:01:57.315Z,28.1
2018-05-10T00:02:46.833Z,28.1
2018-05-10T00:03:37.428Z,28.2
2018-05-10T00:04:27.332Z,28.1
2018-05-10T00:05:17.284Z,28.1
2018-05-10T00:06:07.344Z,28.1
2018-05-10T00:06:57.713Z,28.1
2018-05-10T00:07:48.061Z,28.1
2018-05-10T00:08:37.060Z,28.1
2018-05-10T00:09:42.519Z,28.1
2018-05-10T00:10:18.089Z,28.2
2018-05-10T00:11:07.472Z,28.2
2018-05-10T00:11:57.816Z,28.2
2018-05-10T00:12:47.608Z,28.1
2018-05-10T00:13:37.371Z,28.2
2018-05-10T00:14:27.453Z,28.2
2018-05-10T00:15:18.361Z,28.2
2018-05-10T00:16:07.589Z,28.2
2018-05-10T00:16:58.481Z,28.2
2018-05-10T00:17:48.270Z,28.2
2018-05-10T00:18:38.331Z,28.2
2018-05-10T00:19:28.131Z,28.2
2018-05-10T00:20:18.180Z,28.2
2018-05-10T00:21:08.520Z,28.2
2018-05-10T00:21:58.864Z,28.2
2018-05-10T00:22:48.647Z,28.2
2018-05-10T00:23:38.967Z,28.2
2018-05-10T00:24:29.260Z,28.2
2018-05-10T00:25:18.840Z,28.2
2018-05-10T00:26:08.934Z,28.2
2018-05-10T00:26:58.968Z,28.2
2018-05-10T00:27:49.035Z,28.2
2018-05-10T00:28:39.077Z,28.2
2018-05-10T00:29:29.177Z,28.2
2018-05-10T00:30:19.119Z,28.2
2018-05-10T00:31:09.475Z,28.2
2018-05-10T00:31:59.621Z,28.2
2018-05-10T00:32:49.401Z,28.2
2018-05-10T00:33:39.077Z,28.2
2018-05-10T00:34:29.518Z,28.2
2018-05-10T00:35:19.325Z,28.2
2018-05-10T00:36:10.342Z,28.2
2018-05-10T00:36:59.459Z,28.2
2018-05-10T00:37:49.785Z,28.2
2018-05-10T00:38:39.886Z,28.2
2018-05-10T00:39:29.964Z,28.2
2018-05-10T00:40:20.231Z,28.2
2018-05-10T00:41:09.796Z,28.2
2018-05-10T00:42:00.134Z,28.2
2018-05-10T00:43:53.919Z,28.2
2018-05-10T00:44:03.657Z,28.2
2018-05-10T00:44:55.217Z,28.2
2018-05-10T00:45:44.364Z,28.2
2018-05-10T00:46:34.831Z,28.2
2018-05-10T00:47:24.209Z,28.2
2018-05-10T00:48:15.136Z,28.2
2018-05-10T00:49:05.187Z,28.2
2018-05-10T00:49:54.668Z,28.2
2018-05-10T00:50:45.017Z,28.2
2018-05-10T00:51:34.817Z,28.2
2018-05-10T00:52:40.470Z,28.2
2018-05-10T00:53:15.154Z,28.2
2018-05-10T00:54:05.013Z,28.2
2018-05-10T00:54:55.339Z,28.2
2018-05-10T00:55:45.422Z,28.2
2018-05-10T00:56:35.758Z,28.2
2018-05-10T00:57:24.997Z,28.3
2018-05-10T00:58:15.609Z,28.2
2018-05-10T00:59:06.023Z,28.2
2018-05-10T00:59:55.482Z,28.2
2018-05-10T01:00:45.250Z,28.2
2018-05-10T01:01:36.389Z,28.3
2018-05-10T01:02:25.359Z,28.2
2018-05-10T01:03:15.528Z,28.3
2018-05-10T01:04:05.412Z,28.2
2018-05-10T01:04:56.214Z,28.2
2018-05-10T01:05:44.964Z,28.3
2018-05-10T01:06:35.415Z,28.3
2018-05-10T01:07:25.502Z,28.2
2018-05-10T01:08:16.099Z,28.2
2018-05-10T01:09:06.141Z,28.3
2018-05-10T01:09:56.809Z,28.3
2018-05-10T01:10:46.032Z,28.3
2018-05-10T01:11:35.371Z,28.2
2018-05-10T01:12:25.604Z,28.3
2018-05-10T01:13:16.386Z,28.2
2018-05-10T01:14:06.276Z,28.2
2018-05-10T01:14:56.688Z,28.2
2018-05-10T01:15:46.089Z,28.2
2018-05-10T01:16:36.810Z,28.2
2018-05-10T01:17:26.539Z,28.3
2018-05-10T01:18:16.011Z,28.3
2018-05-10T01:19:06.343Z,28.3
2018-05-10T01:19:56.670Z,28.3
2018-05-10T01:20:47.308Z,28.3
2018-05-10T01:21:37.186Z,28.3
2018-05-10T01:22:27.450Z,28.3
2018-05-10T01:23:16.696Z,28.3
2018-05-10T01:24:06.723Z,28.3
2018-05-10T01:24:57.405Z,28.3
2018-05-10T01:25:48.208Z,28.3
2018-05-10T01:26:37.532Z,28.3
2018-05-10T01:27:27.591Z,28.3
2018-05-10T01:28:17.331Z,28.3
2018-05-10T01:29:08.245Z,28.3
2018-05-10T01:29:57.444Z,28.3
2018-05-10T01:30:47.933Z,28.3
2018-05-10T01:31:37.942Z,28.3
2018-05-10T01:32:42.332Z,28.3
2018-05-10T20:10:31.469Z,23.8
2018-05-10T20:11:22.963Z,23.9
2018-05-10T20:12:13.024Z,23.8
2018-05-10T20:13:02.805Z,23.8
2018-05-10T20:13:53.980Z,23.8
2018-05-10T20:14:42.677Z,23.8
2018-05-10T20:15:33.294Z,23.8
2018-05-10T20:16:23.333Z,23.8
2018-05-10T20:17:13.138Z,23.8
2018-05-10T20:18:03.513Z,23.8
2018-05-10T20:18:52.419Z,23.8
2018-05-10T20:19:42.273Z,23.8
2018-05-10T20:20:32.324Z,23.8
2018-05-10T20:21:23.274Z,23.8
2018-05-10T20:22:13.196Z,23.8
2018-05-10T20:23:03.026Z,23.8
2018-05-10T20:23:53.980Z,23.8
2018-05-10T20:24:43.007Z,23.8
2018-05-10T20:25:33.498Z,23.8
2018-05-10T20:26:23.248Z,23.8
2018-05-10T20:27:12.641Z,23.8
2018-05-10T20:28:03.200Z,23.8
2018-05-10T20:28:52.898Z,23.8
2018-05-10T20:29:43.377Z,23.8
2018-05-10T20:30:33.115Z,23.8
2018-05-10T20:31:23.358Z,23.8
2018-05-10T20:32:14.965Z,23.8
2018-05-10T20:33:04.040Z,23.8
2018-05-10T20:33:53.873Z,23.8
2018-05-10T20:34:43.702Z,23.8
2018-05-10T20:35:34.222Z,23.8
2018-05-10T20:36:24.375Z,23.8
2018-05-10T20:37:14.453Z,23.8
2018-05-10T20:38:03.577Z,23.8
2018-05-10T20:38:54.496Z,23.8
2018-05-10T20:39:44.305Z,23.8
2018-05-10T20:40:33.787Z,23.8
2018-05-10T20:41:24.235Z,23.8
2018-05-10T20:42:14.369Z,23.8
2018-05-10T20:43:05.275Z,23.8
2018-05-10T20:43:54.887Z,23.8
2018-05-10T20:44:44.933Z,23.8
2018-05-10T20:45:35.305Z,23.8
2018-05-10T20:46:24.754Z,23.8
2018-05-10T20:47:15.134Z,23.8
2018-05-10T20:48:05.192Z,23.8
2018-05-10T20:48:55.854Z,23.8
2018-05-10T20:49:44.845Z,23.8
2018-05-10T20:50:35.976Z,23.8
2018-05-10T20:51:24.867Z,23.8
2018-05-10T20:52:15.305Z,23.7
2018-05-10T20:53:05.545Z,23.7
2018-05-10T20:53:55.484Z,23.7
2018-05-10T20:54:45.987Z,23.6
2018-05-10T20:55:35.882Z,23.6
2018-05-10T20:56:25.808Z,23.6
2018-05-10T20:57:15.606Z,23.5
2018-05-10T20:58:05.352Z,23.5
2018-05-10T20:58:55.875Z,23.4
2018-05-10T20:59:45.817Z,23.4
2018-05-10T21:00:35.910Z,23.4
2018-05-10T21:01:26.230Z,23.4
2018-05-10T21:02:15.763Z,23.4
2018-05-10T21:03:06.311Z,23.4
2018-05-10T21:03:55.488Z,23.4
2018-05-10T21:04:46.270Z,23.4
2018-05-10T21:05:36.596Z,23.4
2018-05-10T21:06:26.018Z,23.3
2018-05-10T21:07:15.971Z,23.3
2018-05-10T21:08:06.709Z,23.3
2018-05-10T21:08:56.517Z,23.3
2018-05-10T21:09:47.083Z,23.3
2018-05-10T21:10:37.216Z,23.3
2018-05-10T21:11:26.102Z,23.3
2018-05-10T21:12:17.027Z,23.3
2018-05-10T21:13:06.607Z,23.3
2018-05-10T21:13:57.151Z,23.3
2018-05-10T21:14:46.729Z,23.3
2018-05-10T21:15:37.303Z,23.3
2018-05-10T21:16:28.294Z,23.3
2018-05-10T21:17:17.689Z,23.3
2018-05-10T21:18:07.743Z,23.2
2018-05-10T21:18:58.107Z,23.2
2018-05-10T21:19:47.847Z,23.3
2018-05-10T21:20:37.948Z,23.2
2018-05-10T21:21:28.115Z,23.2
2018-05-10T21:22:18.044Z,23.2
2018-05-10T21:23:08.987Z,23.2
2018-05-10T21:23:57.904Z,23.2
2018-05-10T21:24:48.506Z,23.2
2018-05-10T21:25:37.747Z,23.2
2018-05-10T21:26:28.384Z,23.2
2018-05-10T21:27:18.449Z,23.2
2018-05-10T21:28:08.189Z,23.2
2018-05-10T21:28:58.537Z,23.1
2018-05-10T21:29:48.932Z,23.1
2018-05-10T21:30:38.390Z,23.2
2018-05-10T21:31:28.486Z,23.1
2018-05-10T21:32:19.079Z,23.2
2018-05-10T21:33:09.149Z,23.2
2018-05-10T21:33:59.821Z,23.1
2018-05-10T21:34:49.281Z,23.1
2018-05-10T21:35:38.754Z,23.1
2018-05-10T21:36:29.217Z,23.1
2018-05-10T21:37:19.471Z,23.1
2018-05-10T21:38:09.512Z,23.1
2018-05-10T21:38:59.616Z,23.1
2018-05-10T21:39:49.376Z,23.1
2018-05-10T21:40:39.228Z,23.1
2018-05-10T21:41:29.281Z,23.1
2018-05-10T21:42:19.639Z,23.1
2018-05-10T21:43:09.667Z,23.1
2018-05-10T21:43:59.681Z,23.1
2018-05-10T21:44:51.052Z,23.1
2018-05-10T21:45:40.079Z,23.1
2018-05-10T21:46:29.885Z,23.1
2018-05-10T21:47:20.242Z,23.1
2018-05-10T21:48:09.995Z,23.1
2018-05-10T21:48:59.775Z,23.1
2018-05-10T21:49:50.182Z,23.1
2018-05-10T21:50:39.618Z,23.1
2018-05-10T21:51:29.990Z,23.1
2018-05-10T21:52:20.333Z,23.1
2018-05-10T21:53:10.813Z,23.1
2018-05-10T21:53:59.346Z,23.1
2018-05-10T21:54:50.912Z,23.1
2018-05-10T21:55:40.564Z,23.1
2018-05-10T21:56:30.927Z,23.1
2018-05-10T21:57:20.460Z,23.1
2018-05-10T21:58:10.782Z,23.1
2018-05-10T21:59:00.857Z,23.1
2018-05-10T21:59:50.911Z,23.1
2018-05-10T22:00:41.243Z,23.1
2018-05-10T22:01:31.118Z,23.1
2018-05-10T22:02:21.336Z,23.1
2018-05-10T22:03:11.401Z,23.1
2018-05-10T22:04:01.228Z,23.1
2018-05-10T22:04:50.997Z,23.1
2018-05-10T22:05:41.346Z,23.1
2018-05-10T22:06:31.360Z,23.1
2018-05-10T22:07:21.216Z,23.1
2018-05-10T22:08:11.209Z,23.1
2018-05-10T22:09:02.102Z,23.1
2018-05-10T22:09:51.992Z,23.1
2018-05-10T22:10:41.715Z,23.1
2018-05-10T22:11:31.480Z,23.1
2018-05-10T22:12:21.642Z,23.1
2018-05-10T22:13:12.200Z,23.1
2018-05-10T22:14:01.696Z,23.1
2018-05-10T22:14:52.135Z,23.1
2018-05-10T22:15:42.145Z,23.1
2018-05-10T22:16:32.197Z,23.1
2018-05-10T22:17:22.566Z,23.1
2018-05-10T22:18:12.319Z,23.1
2018-05-10T22:19:02.720Z,23.1
2018-05-10T22:19:51.865Z,23.1
2018-05-10T22:20:42.592Z,23.1
2018-05-10T22:21:32.825Z,23.1
2018-05-10T22:22:22.878Z,23.1
2018-05-10T22:23:12.683Z,23.1
2018-05-10T22:24:03.006Z,23.1
2018-05-10T22:24:53.054Z,23.1
2018-05-10T22:25:42.853Z,23.1
2018-05-10T22:26:32.930Z,23.1
2018-05-10T22:27:22.683Z,23.1
2018-05-10T22:28:13.014Z,23.1
2018-05-10T22:29:02.850Z,23.1
2018-05-10T22:29:53.445Z,23.1
2018-05-10T22:30:43.515Z,23.1
2018-05-10T22:31:33.600Z,23.1
2018-05-10T22:32:23.653Z,23.1
2018-05-10T22:33:13.445Z,23.1
2018-05-10T22:34:03.210Z,23.1
2018-05-10T22:34:53.577Z,23.1
2018-05-10T22:35:43.897Z,23.1
2018-05-10T22:36:33.379Z,23.1
2018-05-10T22:37:23.744Z,23.1
2018-05-10T22:38:14.095Z,23.1
2018-05-10T22:39:03.588Z,23.1
2018-05-10T22:39:54.252Z,23.1
2018-05-10T22:40:43.723Z,23.1
2018-05-10T22:41:34.340Z,23.1
2018-05-10T22:42:24.140Z,23.1
2018-05-10T22:43:13.926Z,23.1
2018-05-10T22:44:04.248Z,23.1
2018-05-10T22:44:54.589Z,23.1
2018-05-10T22:45:44.653Z,23.1
2018-05-10T22:46:34.714Z,23.1
2018-05-10T22:47:23.661Z,23
2018-05-10T22:48:14.849Z,23.1
2018-05-10T22:49:04.955Z,23.1
2018-05-10T22:49:54.977Z,23.1
2018-05-10T22:50:44.797Z,23.1
2018-05-10T22:51:35.089Z,23.1
2018-05-10T22:52:24.902Z,23.1
2018-05-10T22:53:15.241Z,23.1
2018-05-10T22:54:05.004Z,23.1
2018-05-10T22:54:55.355Z,23.1
2018-05-10T22:55:45.463Z,23.1
2018-05-10T22:56:35.215Z,23.1
2018-05-10T22:57:25.272Z,23.1
2018-05-10T22:58:15.638Z,23.1
2018-05-10T22:59:05.398Z,23
2018-05-10T22:59:56.316Z,23.1
2018-05-10T23:00:45.529Z,23.1
2018-05-10T23:01:35.441Z,23.1
2018-05-10T23:02:25.943Z,23.1
2018-05-10T23:03:15.436Z,23.1
2018-05-10T23:04:06.076Z,23.1
2018-05-10T23:04:56.141Z,23.1
2018-05-10T23:05:46.168Z,23.1
2018-05-10T23:06:35.973Z,23.1
2018-05-10T23:07:26.023Z,23.1
2018-05-10T23:08:16.382Z,23.1
2018-05-10T23:09:05.569Z,23.1
2018-05-10T23:09:56.223Z,23.1
2018-05-10T23:10:46.006Z,23
2018-05-10T23:11:35.776Z,23.1
2018-05-10T23:12:26.397Z,23
2018-05-10T23:13:16.500Z,23.1
2018-05-10T23:14:06.810Z,23.1
2018-05-10T23:14:56.310Z,23.1
2018-05-10T23:15:46.654Z,23
2018-05-10T23:16:36.980Z,23
2018-05-10T23:17:26.796Z,23.1
2018-05-10T23:18:17.096Z,23
2018-05-10T23:19:06.958Z,23
2018-05-10T23:19:57.245Z,23.1
2018-05-10T23:20:46.761Z,23
2018-05-10T23:21:37.097Z,23.1
2018-05-10T23:22:26.870Z,23.1
2018-05-10T23:23:17.215Z,23.1
2018-05-10T23:24:07.314Z,23.1
2018-05-10T23:24:56.793Z,23
2018-05-10T23:25:47.792Z,23
2018-05-10T23:26:37.757Z,23.1
2018-05-10T23:27:27.812Z,23.1
2018-05-10T23:28:17.906Z,23.1
2018-05-10T23:29:07.128Z,23.1
2018-05-10T23:29:57.433Z,23.1
2018-05-10T23:30:47.795Z,23.1
2018-05-10T23:31:37.900Z,23.1
2018-05-10T23:32:27.917Z,23
2018-05-10T23:33:18.260Z,23.1
2018-05-10T23:34:08.320Z,23.1
2018-05-10T23:34:57.804Z,23.1
2018-05-10T23:35:47.905Z,23.1
2018-05-10T23:36:38.216Z,23.1
2018-05-10T23:37:28.043Z,23
2018-05-10T23:38:17.799Z,23.1
2018-05-10T23:39:08.707Z,23.1
2018-05-10T23:39:58.754Z,23
2018-05-10T23:40:48.819Z,23.1
2018-05-10T23:41:38.938Z,23.1
2018-05-10T23:42:28.976Z,23
2018-05-10T23:43:18.499Z,23
2018-05-10T23:44:09.104Z,23.1
2018-05-10T23:44:58.861Z,23.1
2018-05-10T23:45:48.633Z,23.1
2018-05-10T23:46:38.993Z,23.1
2018-05-10T23:47:28.850Z,23.1
2018-05-10T23:48:19.422Z,23.1
2018-05-10T23:49:09.204Z,23.1
2018-05-10T23:49:59.510Z,23
2018-05-10T23:50:49.315Z,23.1
2018-05-10T23:51:39.360Z,23.1
2018-05-10T23:52:28.883Z,23.1
2018-05-10T23:53:19.766Z,23.1
2018-05-10T23:54:09.587Z,23.1
2018-05-10T23:54:59.651Z,23.1
2018-05-10T23:55:49.977Z,23
2018-05-10T23:56:40.021Z,23.1
2018-05-10T23:57:30.091Z,23.1
2018-05-10T23:58:19.321Z,23.1
2018-05-10T23:59:09.924Z,23.1
2018-05-10T23:59:59.976Z,23.1
